Aérodrome :
LOGIN :

S'inscrire | Disclaimer

   EN    FR    IT 

 










Légende :    VFR   VFR Marginal   IFR   IFR Intensif   IFR Très Intensif
Visi : 
Plafond : 
>= 8 km
>= 3000ft
5 à 8 km
1000 à 3000 ft
1500m à 5 km
500 à 1000 ft
800 à 1500m
200 à 500 ft
< 800m
< 200 ft
Symboles :   Orages  Brouillard  Fortes neiges  Fortes précipitations  Vent > 20 kt
SIGMETs :   Divers  Orages  Givrage  Turbulence  Onde Orograph.  Cendres Volcan.







- Altitude de l'aérodrome : 202 ft
- Code IATA : LGW
- Voir les cartes d'approche


EGKK - London Gatwick

DERNIER METAR :
  • 181850Z 17009KT 130V220 8000 +RA BKN012 08/07 Q1003

METARs EXPIRÉS :
  • 181820Z 16011KT 130V200 9999 -RA BKN009 BKN013 08/07 Q1003
  • 181750Z 16009KT 8000 -RA BKN009 OVC013 08/07 Q1004
  • 181720Z 17009KT 130V200 9000 -RA SCT011 BKN023 BKN032 08/07 Q1004 RERA
  • 181650Z 16009KT 130V200 8000 RA FEW011 SCT020 BKN033 08/07 Q1004
  • 181620Z 17009KT 130V210 9000 -RA FEW017 BKN049 08/06 Q1005

TAF TAF EGKK
Valide du 18 à 18h jusqu'au 20 à 00h UTC


181701Z 1818/1924 17013KT 9999 SCT020
TEMPO 1818/1822 16016G26KT 6000 RA
PROB30
TEMPO 1818/1822 3000 +RA BKN009
BECMG 1820/1823 23008KT
PROB30
TEMPO 1822/1824 8000 -SHRA BKN010
TEMPO 1900/1911 6000 SHRA BKN012CB
PROB30
TEMPO 1902/1910 21015G25KT 3000 +SHRA BKN008
PROB40
TEMPO 1914/1924 6000 SHRA BKN012CB
Pas de NOTAMs connus pour ce terrain.
2 SIGMETs publiés pour la FIR London (EGTT) :
 
Onde orographique forte
EGTT SIGMET 09 VALID 181900/182300 EGRR
EGTT LONDON FIR SEV MTW FCST WI N5220 W00530 - N5500 W00530 - N5500 W00015 - N5024 W00255 - N4959 W00548 - N5220 W00530 FL030/250 STNR WKN=
Onde orographique forte
EGTT SIGMET 08 VALID 181500/181900 EGRR
EGTT LONDON FIR SEV MTW FCST WI N5220 W00530 - N5500 W00530 - N5500 W00015 - N5024 W00255 - N4959 W00548 - N5220 W00530 FL030/250 STNR WKN=



MET'MAP, la Météo Aéronautique d'un coup d'oeil ! - Copyright ORBIFLY Décembre 2007 - Disclaimer

ORBIFLY MET'MAP TEAM :

Programmation & Développement : Alexandra Zaïnal
Conception & Développement : Baudouin d'Aumeries
Co-Programmation & Développement : Marc-Olivier Méhu
Soutien technique & logistique : Manuel Goepfert

Contact : metmap@orbifly.com




SOURCES & CREDITS :

   NOAA